Vega, TX (79092)

8:34 AM CDT on August 30, 2016 (GMT -0500)
Vega, TX | | Change Station

Elev 4042 ft 35.25 °N, 102.42 °W | Updated 58 seconds ago

Thunderstorms and Rain
Thunderstorm Rain
63.0 °F
Feels Like 63.0 °F
N
0.0
Wind Variable Wind from ENE
Gusts 1.0 mph

Today
High -- | Low -- °F
--% Chance of Precip.
Yesterday
High -- | Low -- °F
Precip. -- in
Pressure 30.27 in
Visibility 2.5 miles
Clouds Scattered Clouds 2700 ft
Mostly Cloudy 3300 ft
Overcast 4100 ft
Dew Point 62 °F
Humidity 96%
Rainfall 0.14 in
Snow Depth Not available.
7:21 AM 8:18 PM
Waning Crescent, 4% visible
METAR KHRX 301315Z AUTO 02008G17KT 2 1/2SM TSRA SCT027 BKN033 OVC041 18/18 A3027 RMK AO2 P0006 T01830181
Pressure 30.27 in
Visibility 2.5 miles
Clouds Scattered Clouds 2700 ft
Mostly Cloudy 3300 ft
Overcast 4100 ft
Dew Point 62 °F
Humidity 96%
Rainfall 0.14 in
Snow Depth Not available.
7:21 AM 8:18 PM
Waning Crescent, 4% visible
METAR KHRX 301315Z AUTO 02008G17KT 2 1/2SM TSRA SCT027 BKN033 OVC041 18/18 A3027 RMK AO2 P0006 T01830181

10-Day Weather Forecast

Almanac

Astronomy

Aug. 30, 2016 Rise Set
Actual Time
Civil Twilight
Nautical Twilight
Astronomical Twilight
Moon
Length of Visible Light
Length of Day
Tomorrow will be .
, % of the Moon is Illuminated

Today's Extremes

State Highs State Lows

Community

WunderPhotos

Upload Photos

1,935,831 photos uploaded!

WunderBlog® & News

Nearby

Air Quality

  Air Quality AQ Index Pollutant
Not available.

Snow Depth

Station Depth Elevation

Earthquake Activity

City Distance Mag. Time & Date
Minimum magnitude displayed is 2.5.

Coastal Water Temperatures

Place Temperature

Stations

Nearby Weather Stations

Station Location Temp. Windchill Dew Point Humidity Wind Precip. Elev Updated Type
                   

Watches & Warnings

There are currently no watches in effect.